sensor_id;sensor_type;location;lat;lon;timestamp;temperature;humidity
2893;DHT22;1456;51.840;12.184;2024-01-25T00:00:21;8.60;99.90
2893;DHT22;1456;51.840;12.184;2024-01-25T00:02:47;8.50;99.90
2893;DHT22;1456;51.840;12.184;2024-01-25T00:05:13;8.50;99.90
2893;DHT22;1456;51.840;12.184;2024-01-25T00:07:49;8.50;99.90
2893;DHT22;1456;51.840;12.184;2024-01-25T00:10:16;8.50;99.90
2893;DHT22;1456;51.840;12.184;2024-01-25T00:12:42;8.50;99.90
2893;DHT22;1456;51.840;12.184;2024-01-25T00:15:09;8.50;99.90
2893;DHT22;1456;51.840;12.184;2024-01-25T00:17:35;8.50;99.90
2893;DHT22;1456;51.840;12.184;2024-01-25T00:20:01;8.50;99.90
2893;DHT22;1456;51.840;12.184;2024-01-25T00:22:27;8.60;99.90
2893;DHT22;1456;51.840;12.184;2024-01-25T00:24:53;8.50;99.90
2893;DHT22;1456;51.840;12.184;2024-01-25T00:27:18;8.50;99.90
2893;DHT22;1456;51.840;12.184;2024-01-25T00:29:44;8.60;99.90
2893;DHT22;1456;51.840;12.184;2024-01-25T00:32:09;8.60;99.90
2893;DHT22;1456;51.840;12.184;2024-01-25T00:34:35;8.50;99.90
2893;DHT22;1456;51.840;12.184;2024-01-25T00:37:01;8.60;99.90
2893;DHT22;1456;51.840;12.184;2024-01-25T00:39:27;8.60;99.90
2893;DHT22;1456;51.840;12.184;2024-01-25T00:41:58;8.60;99.90
2893;DHT22;1456;51.840;12.184;2024-01-25T00:44:29;8.60;99.90
2893;DHT22;1456;51.840;12.184;2024-01-25T00:46:55;8.60;99.90
2893;DHT22;1456;51.840;12.184;2024-01-25T00:49:21;8.60;99.90
2893;DHT22;1456;51.840;12.184;2024-01-25T00:51:47;8.60;99.90
2893;DHT22;1456;51.840;12.184;2024-01-25T00:54:14;8.60;99.90
2893;DHT22;1456;51.840;12.184;2024-01-25T00:56:40;8.60;99.90
2893;DHT22;1456;51.840;12.184;2024-01-25T00:59:06;8.60;99.90
2893;DHT22;1456;51.840;12.184;2024-01-25T01:01:32;8.60;99.90
2893;DHT22;1456;51.840;12.184;2024-01-25T01:03:58;8.60;99.90
2893;DHT22;1456;51.840;12.184;2024-01-25T01:06:25;8.60;99.90
2893;DHT22;1456;51.840;12.184;2024-01-25T01:08:51;8.60;99.90
2893;DHT22;1456;51.840;12.184;2024-01-25T01:11:18;8.60;99.90
2893;DHT22;1456;51.840;12.184;2024-01-25T01:13:43;8.60;99.90
2893;DHT22;1456;51.840;12.184;2024-01-25T01:16:09;8.60;99.90
2893;DHT22;1456;51.840;12.184;2024-01-25T01:18:35;8.50;99.90
2893;DHT22;1456;51.840;12.184;2024-01-25T01:21:00;8.50;99.90
2893;DHT22;1456;51.840;12.184;2024-01-25T01:23:26;8.50;99.90
2893;DHT22;1456;51.840;12.184;2024-01-25T01:25:52;8.50;99.90
2893;DHT22;1456;51.840;12.184;2024-01-25T01:28:17;8.40;99.90
2893;DHT22;1456;51.840;12.184;2024-01-25T01:30:43;8.30;99.90
2893;DHT22;1456;51.840;12.184;2024-01-25T01:33:09;8.10;99.90
2893;DHT22;1456;51.840;12.184;2024-01-25T01:35:35;7.90;99.90
2893;DHT22;1456;51.840;12.184;2024-01-25T01:38:00;7.80;99.90
2893;DHT22;1456;51.840;12.184;2024-01-25T01:40:26;7.70;99.90
2893;DHT22;1456;51.840;12.184;2024-01-25T01:42:52;7.70;99.90
2893;DHT22;1456;51.840;12.184;2024-01-25T01:45:23;7.80;99.90
2893;DHT22;1456;51.840;12.184;2024-01-25T01:47:49;7.80;99.90
2893;DHT22;1456;51.840;12.184;2024-01-25T01:50:15;7.90;99.90
2893;DHT22;1456;51.840;12.184;2024-01-25T01:52:41;8.10;99.90
2893;DHT22;1456;51.840;12.184;2024-01-25T01:55:08;8.20;99.90
2893;DHT22;1456;51.840;12.184;2024-01-25T01:57:35;8.30;99.90
2893;DHT22;1456;51.840;12.184;2024-01-25T02:00:03;8.30;99.90
2893;DHT22;1456;51.840;12.184;2024-01-25T02:02:30;8.30;99.90
2893;DHT22;1456;51.840;12.184;2024-01-25T02:04:56;8.30;99.90
2893;DHT22;1456;51.840;12.184;2024-01-25T02:07:22;8.30;99.90
2893;DHT22;1456;51.840;12.184;2024-01-25T02:09:47;8.20;99.90
2893;DHT22;1456;51.840;12.184;2024-01-25T02:12:15;8.20;99.90
2893;DHT22;1456;51.840;12.184;2024-01-25T02:14:42;8.10;99.90
2893;DHT22;1456;51.840;12.184;2024-01-25T02:17:10;8.10;99.90
2893;DHT22;1456;51.840;12.184;2024-01-25T02:19:35;8.10;99.90
2893;DHT22;1456;51.840;12.184;2024-01-25T02:22:04;8.00;99.90
2893;DHT22;1456;51.840;12.184;2024-01-25T02:24:30;8.00;99.90
2893;DHT22;1456;51.840;12.184;2024-01-25T02:26:56;7.90;99.90
2893;DHT22;1456;51.840;12.184;2024-01-25T02:29:22;7.90;99.90
2893;DHT22;1456;51.840;12.184;2024-01-25T02:31:48;7.90;99.90
2893;DHT22;1456;51.840;12.184;2024-01-25T02:34:13;7.90;99.90
2893;DHT22;1456;51.840;12.184;2024-01-25T02:36:39;8.00;99.90
2893;DHT22;1456;51.840;12.184;2024-01-25T02:39:04;8.00;99.90
2893;DHT22;1456;51.840;12.184;2024-01-25T02:41:31;7.90;99.90
2893;DHT22;1456;51.840;12.184;2024-01-25T02:43:57;8.00;99.90
2893;DHT22;1456;51.840;12.184;2024-01-25T02:46:23;8.00;99.90
2893;DHT22;1456;51.840;12.184;2024-01-25T02:48:49;8.00;99.90
2893;DHT22;1456;51.840;12.184;2024-01-25T02:51:14;8.00;99.90
2893;DHT22;1456;51.840;12.184;2024-01-25T02:53:40;8.00;99.90
2893;DHT22;1456;51.840;12.184;2024-01-25T02:56:06;8.00;99.90
2893;DHT22;1456;51.840;12.184;2024-01-25T02:58:32;8.00;99.90
2893;DHT22;1456;51.840;12.184;2024-01-25T03:00:58;8.00;99.90
2893;DHT22;1456;51.840;12.184;2024-01-25T03:03:24;8.00;99.90
2893;DHT22;1456;51.840;12.184;2024-01-25T03:05:51;7.90;99.90
2893;DHT22;1456;51.840;12.184;2024-01-25T03:08:17;7.90;99.90
2893;DHT22;1456;51.840;12.184;2024-01-25T03:10:42;7.90;99.90
2893;DHT22;1456;51.840;12.184;2024-01-25T03:13:08;7.90;99.90
2893;DHT22;1456;51.840;12.184;2024-01-25T03:15:34;7.90;99.90
2893;DHT22;1456;51.840;12.184;2024-01-25T03:17:59;7.90;99.90
2893;DHT22;1456;51.840;12.184;2024-01-25T03:20:25;7.80;99.90
2893;DHT22;1456;51.840;12.184;2024-01-25T03:22:51;7.70;99.90
2893;DHT22;1456;51.840;12.184;2024-01-25T03:25:17;7.70;99.90
2893;DHT22;1456;51.840;12.184;2024-01-25T03:27:42;7.70;99.90
2893;DHT22;1456;51.840;12.184;2024-01-25T03:30:08;7.60;99.90
2893;DHT22;1456;51.840;12.184;2024-01-25T03:32:35;7.60;99.90
2893;DHT22;1456;51.840;12.184;2024-01-25T03:35:01;7.50;99.90
2893;DHT22;1456;51.840;12.184;2024-01-25T03:37:27;7.50;99.90
2893;DHT22;1456;51.840;12.184;2024-01-25T03:39:53;7.40;99.90
2893;DHT22;1456;51.840;12.184;2024-01-25T03:42:18;7.40;99.90
2893;DHT22;1456;51.840;12.184;2024-01-25T03:44:44;7.30;99.90
2893;DHT22;1456;51.840;12.184;2024-01-25T03:47:10;7.30;99.90
2893;DHT22;1456;51.840;12.184;2024-01-25T03:49:36;7.30;99.90
2893;DHT22;1456;51.840;12.184;2024-01-25T03:52:03;7.40;99.90
2893;DHT22;1456;51.840;12.184;2024-01-25T03:54:29;7.50;99.90
2893;DHT22;1456;51.840;12.184;2024-01-25T03:56:55;7.50;99.90
2893;DHT22;1456;51.840;12.184;2024-01-25T03:59:20;7.40;99.90
2893;DHT22;1456;51.840;12.184;2024-01-25T04:01:46;7.50;99.90
2893;DHT22;1456;51.840;12.184;2024-01-25T04:04:13;7.50;99.90
2893;DHT22;1456;51.840;12.184;2024-01-25T04:06:41;7.60;99.90
2893;DHT22;1456;51.840;12.184;2024-01-25T04:09:09;7.60;99.90
2893;DHT22;1456;51.840;12.184;2024-01-25T04:11:36;7.60;99.90
2893;DHT22;1456;51.840;12.184;2024-01-25T04:14:03;7.50;99.90
2893;DHT22;1456;51.840;12.184;2024-01-25T04:16:28;7.40;99.90
2893;DHT22;1456;51.840;12.184;2024-01-25T04:18:54;7.40;99.90
2893;DHT22;1456;51.840;12.184;2024-01-25T04:21:20;7.30;99.90
2893;DHT22;1456;51.840;12.184;2024-01-25T04:23:45;7.40;99.90
2893;DHT22;1456;51.840;12.184;2024-01-25T04:26:11;7.40;99.90
2893;DHT22;1456;51.840;12.184;2024-01-25T04:28:36;7.50;99.90
2893;DHT22;1456;51.840;12.184;2024-01-25T04:31:02;7.50;99.90
2893;DHT22;1456;51.840;12.184;2024-01-25T04:33:31;7.60;99.90
2893;DHT22;1456;51.840;12.184;2024-01-25T04:35:57;7.60;99.90
2893;DHT22;1456;51.840;12.184;2024-01-25T04:38:22;7.60;99.90
2893;DHT22;1456;51.840;12.184;2024-01-25T04:40:48;7.60;99.90
2893;DHT22;1456;51.840;12.184;2024-01-25T04:43:13;7.60;99.90
2893;DHT22;1456;51.840;12.184;2024-01-25T04:45:39;7.60;99.90
2893;DHT22;1456;51.840;12.184;2024-01-25T04:48:06;7.60;99.90
2893;DHT22;1456;51.840;12.184;2024-01-25T04:50:32;7.60;99.90
2893;DHT22;1456;51.840;12.184;2024-01-25T04:52:57;7.60;99.90
2893;DHT22;1456;51.840;12.184;2024-01-25T04:55:23;7.60;99.90
2893;DHT22;1456;51.840;12.184;2024-01-25T04:57:49;7.60;99.90
2893;DHT22;1456;51.840;12.184;2024-01-25T05:00:21;7.60;99.90
2893;DHT22;1456;51.840;12.184;2024-01-25T05:02:47;7.60;99.90
2893;DHT22;1456;51.840;12.184;2024-01-25T05:05:13;7.60;99.90
2893;DHT22;1456;51.840;12.184;2024-01-25T05:07:39;7.60;99.90
2893;DHT22;1456;51.840;12.184;2024-01-25T05:10:05;7.50;99.90
2893;DHT22;1456;51.840;12.184;2024-01-25T05:12:31;7.60;99.90
2893;DHT22;1456;51.840;12.184;2024-01-25T05:14:57;7.60;99.90
2893;DHT22;1456;51.840;12.184;2024-01-25T05:17:23;7.60;99.90
2893;DHT22;1456;51.840;12.184;2024-01-25T05:19:48;7.60;99.90
2893;DHT22;1456;51.840;12.184;2024-01-25T05:22:14;7.60;99.90
2893;DHT22;1456;51.840;12.184;2024-01-25T05:24:40;7.60;99.90
2893;DHT22;1456;51.840;12.184;2024-01-25T05:27:06;7.60;99.90
2893;DHT22;1456;51.840;12.184;2024-01-25T05:29:31;7.50;99.90
2893;DHT22;1456;51.840;12.184;2024-01-25T05:31:57;7.50;99.90
2893;DHT22;1456;51.840;12.184;2024-01-25T05:34:24;7.50;99.90
2893;DHT22;1456;51.840;12.184;2024-01-25T05:36:50;7.60;99.90
2893;DHT22;1456;51.840;12.184;2024-01-25T05:39:15;7.50;99.90
2893;DHT22;1456;51.840;12.184;2024-01-25T05:41:42;7.60;99.90
2893;DHT22;1456;51.840;12.184;2024-01-25T05:44:11;7.50;99.90
2893;DHT22;1456;51.840;12.184;2024-01-25T05:46:37;7.50;99.90
2893;DHT22;1456;51.840;12.184;2024-01-25T05:49:02;7.50;99.90
2893;DHT22;1456;51.840;12.184;2024-01-25T05:51:28;7.50;99.90
2893;DHT22;1456;51.840;12.184;2024-01-25T05:53:54;7.50;99.90
2893;DHT22;1456;51.840;12.184;2024-01-25T05:56:19;7.50;99.90
2893;DHT22;1456;51.840;12.184;2024-01-25T05:58:45;7.50;99.90
2893;DHT22;1456;51.840;12.184;2024-01-25T06:01:11;7.50;99.90
2893;DHT22;1456;51.840;12.184;2024-01-25T06:03:36;7.50;99.90
2893;DHT22;1456;51.840;12.184;2024-01-25T06:06:02;7.50;99.90
2893;DHT22;1456;51.840;12.184;2024-01-25T06:08:28;7.50;99.90
2893;DHT22;1456;51.840;12.184;2024-01-25T06:10:53;7.50;99.90
2893;DHT22;1456;51.840;12.184;2024-01-25T06:13:19;7.50;99.90
2893;DHT22;1456;51.840;12.184;2024-01-25T06:15:45;7.50;99.90
2893;DHT22;1456;51.840;12.184;2024-01-25T06:18:10;7.50;99.90
2893;DHT22;1456;51.840;12.184;2024-01-25T06:20:36;7.40;99.90
2893;DHT22;1456;51.840;12.184;2024-01-25T06:23:02;7.40;99.90
2893;DHT22;1456;51.840;12.184;2024-01-25T06:25:27;7.40;99.90
2893;DHT22;1456;51.840;12.184;2024-01-25T06:27:56;7.40;99.90
2893;DHT22;1456;51.840;12.184;2024-01-25T06:30:23;7.40;99.90
2893;DHT22;1456;51.840;12.184;2024-01-25T06:32:48;7.40;99.90
2893;DHT22;1456;51.840;12.184;2024-01-25T06:35:14;7.40;99.90
2893;DHT22;1456;51.840;12.184;2024-01-25T06:37:41;7.40;99.90
2893;DHT22;1456;51.840;12.184;2024-01-25T06:40:07;7.40;99.90
2893;DHT22;1456;51.840;12.184;2024-01-25T06:42:32;7.40;99.90
2893;DHT22;1456;51.840;12.184;2024-01-25T06:44:58;7.40;99.90
2893;DHT22;1456;51.840;12.184;2024-01-25T06:47:24;7.40;99.90
2893;DHT22;1456;51.840;12.184;2024-01-25T06:49:49;7.40;99.90
2893;DHT22;1456;51.840;12.184;2024-01-25T06:52:18;7.40;99.90
2893;DHT22;1456;51.840;12.184;2024-01-25T06:54:44;7.40;99.90
2893;DHT22;1456;51.840;12.184;2024-01-25T06:57:10;7.40;99.90
2893;DHT22;1456;51.840;12.184;2024-01-25T06:59:36;7.40;99.90
2893;DHT22;1456;51.840;12.184;2024-01-25T07:02:01;7.40;99.90
2893;DHT22;1456;51.840;12.184;2024-01-25T07:04:30;7.40;99.90
2893;DHT22;1456;51.840;12.184;2024-01-25T07:06:55;7.40;99.90
2893;DHT22;1456;51.840;12.184;2024-01-25T07:09:21;7.40;99.90
2893;DHT22;1456;51.840;12.184;2024-01-25T07:11:47;7.40;99.90
2893;DHT22;1456;51.840;12.184;2024-01-25T07:14:12;7.40;99.90
2893;DHT22;1456;51.840;12.184;2024-01-25T07:16:38;7.40;99.90
2893;DHT22;1456;51.840;12.184;2024-01-25T07:19:03;7.40;99.90
2893;DHT22;1456;51.840;12.184;2024-01-25T07:21:30;7.40;99.90
2893;DHT22;1456;51.840;12.184;2024-01-25T07:24:03;7.40;99.90
2893;DHT22;1456;51.840;12.184;2024-01-25T07:26:29;7.40;99.90
2893;DHT22;1456;51.840;12.184;2024-01-25T07:28:55;7.30;99.90
2893;DHT22;1456;51.840;12.184;2024-01-25T07:31:27;7.30;99.90
2893;DHT22;1456;51.840;12.184;2024-01-25T07:33:53;7.30;99.90
2893;DHT22;1456;51.840;12.184;2024-01-25T07:36:19;7.30;99.90
2893;DHT22;1456;51.840;12.184;2024-01-25T07:38:45;7.30;99.90
2893;DHT22;1456;51.840;12.184;2024-01-25T07:41:17;7.30;99.90
2893;DHT22;1456;51.840;12.184;2024-01-25T07:43:43;7.30;99.90
2893;DHT22;1456;51.840;12.184;2024-01-25T07:46:10;7.30;99.90
2893;DHT22;1456;51.840;12.184;2024-01-25T07:48:36;7.30;99.90
2893;DHT22;1456;51.840;12.184;2024-01-25T07:51:01;7.30;99.90
2893;DHT22;1456;51.840;12.184;2024-01-25T07:53:28;7.30;99.90
2893;DHT22;1456;51.840;12.184;2024-01-25T07:55:54;7.20;99.90
2893;DHT22;1456;51.840;12.184;2024-01-25T07:58:19;7.20;99.90
2893;DHT22;1456;51.840;12.184;2024-01-25T08:00:45;7.30;99.90
2893;DHT22;1456;51.840;12.184;2024-01-25T08:03:11;7.30;99.90
2893;DHT22;1456;51.840;12.184;2024-01-25T08:05:37;7.30;99.90
2893;DHT22;1456;51.840;12.184;2024-01-25T08:08:02;7.30;99.90
2893;DHT22;1456;51.840;12.184;2024-01-25T08:10:28;7.30;99.90
2893;DHT22;1456;51.840;12.184;2024-01-25T08:12:54;7.30;99.90
2893;DHT22;1456;51.840;12.184;2024-01-25T08:15:20;7.30;99.90
2893;DHT22;1456;51.840;12.184;2024-01-25T08:17:45;7.40;99.90
2893;DHT22;1456;51.840;12.184;2024-01-25T08:20:11;7.40;99.90
2893;DHT22;1456;51.840;12.184;2024-01-25T08:22:40;7.50;99.90
2893;DHT22;1456;51.840;12.184;2024-01-25T08:25:06;7.50;99.90
2893;DHT22;1456;51.840;12.184;2024-01-25T08:27:32;7.50;99.90
2893;DHT22;1456;51.840;12.184;2024-01-25T08:29:57;7.50;99.90
2893;DHT22;1456;51.840;12.184;2024-01-25T08:32:23;7.50;99.90
2893;DHT22;1456;51.840;12.184;2024-01-25T08:34:49;7.50;99.90
2893;DHT22;1456;51.840;12.184;2024-01-25T08:37:14;7.50;99.90
2893;DHT22;1456;51.840;12.184;2024-01-25T08:39:40;7.50;99.90
2893;DHT22;1456;51.840;12.184;2024-01-25T08:42:06;7.60;99.90
2893;DHT22;1456;51.840;12.184;2024-01-25T08:44:32;7.60;99.90
2893;DHT22;1456;51.840;12.184;2024-01-25T08:46:58;7.70;99.90
2893;DHT22;1456;51.840;12.184;2024-01-25T08:49:23;7.70;99.90
2893;DHT22;1456;51.840;12.184;2024-01-25T08:51:49;7.70;99.90
2893;DHT22;1456;51.840;12.184;2024-01-25T08:54:15;7.80;99.90
2893;DHT22;1456;51.840;12.184;2024-01-25T08:56:41;7.90;99.90
2893;DHT22;1456;51.840;12.184;2024-01-25T08:59:06;7.90;99.90
2893;DHT22;1456;51.840;12.184;2024-01-25T09:01:32;8.00;99.90
2893;DHT22;1456;51.840;12.184;2024-01-25T09:03:58;8.10;99.90
2893;DHT22;1456;51.840;12.184;2024-01-25T09:06:29;8.10;99.90
2893;DHT22;1456;51.840;12.184;2024-01-25T09:08:55;8.10;99.90
2893;DHT22;1456;51.840;12.184;2024-01-25T09:11:21;8.00;99.90
2893;DHT22;1456;51.840;12.184;2024-01-25T09:13:47;7.80;99.90
2893;DHT22;1456;51.840;12.184;2024-01-25T09:16:15;8.10;99.90
2893;DHT22;1456;51.840;12.184;2024-01-25T09:18:41;8.20;99.90
2893;DHT22;1456;51.840;12.184;2024-01-25T09:21:07;8.20;99.90
2893;DHT22;1456;51.840;12.184;2024-01-25T09:23:32;8.20;99.90
2893;DHT22;1456;51.840;12.184;2024-01-25T09:25:58;8.30;99.90
2893;DHT22;1456;51.840;12.184;2024-01-25T09:28:23;8.30;99.90
2893;DHT22;1456;51.840;12.184;2024-01-25T09:30:49;8.30;99.90
2893;DHT22;1456;51.840;12.184;2024-01-25T09:33:15;8.40;99.90
2893;DHT22;1456;51.840;12.184;2024-01-25T09:35:40;8.50;99.90
2893;DHT22;1456;51.840;12.184;2024-01-25T09:38:06;8.50;99.90
2893;DHT22;1456;51.840;12.184;2024-01-25T09:40:32;8.60;99.90
2893;DHT22;1456;51.840;12.184;2024-01-25T09:42:58;8.50;99.90
2893;DHT22;1456;51.840;12.184;2024-01-25T09:45:24;8.40;99.90
2893;DHT22;1456;51.840;12.184;2024-01-25T09:47:50;8.40;99.90
2893;DHT22;1456;51.840;12.184;2024-01-25T09:50:16;8.40;99.90
2893;DHT22;1456;51.840;12.184;2024-01-25T09:52:53;8.50;99.90
2893;DHT22;1456;51.840;12.184;2024-01-25T09:55:23;8.50;99.90
2893;DHT22;1456;51.840;12.184;2024-01-25T09:57:51;8.60;99.90
2893;DHT22;1456;51.840;12.184;2024-01-25T10:00:18;8.60;99.90
2893;DHT22;1456;51.840;12.184;2024-01-25T10:02:47;8.70;99.90
2893;DHT22;1456;51.840;12.184;2024-01-25T10:05:14;8.70;99.90
2893;DHT22;1456;51.840;12.184;2024-01-25T10:07:41;8.70;99.90
2893;DHT22;1456;51.840;12.184;2024-01-25T10:10:08;8.60;99.90
2893;DHT22;1456;51.840;12.184;2024-01-25T10:12:34;8.50;99.90
2893;DHT22;1456;51.840;12.184;2024-01-25T10:15:00;8.60;99.90
2893;DHT22;1456;51.840;12.184;2024-01-25T10:17:25;8.50;99.90
2893;DHT22;1456;51.840;12.184;2024-01-25T10:19:51;8.40;99.90
2893;DHT22;1456;51.840;12.184;2024-01-25T10:22:18;8.30;99.90
2893;DHT22;1456;51.840;12.184;2024-01-25T10:24:44;8.30;99.90
2893;DHT22;1456;51.840;12.184;2024-01-25T10:27:10;8.40;99.90
2893;DHT22;1456;51.840;12.184;2024-01-25T10:29:36;8.40;99.90
2893;DHT22;1456;51.840;12.184;2024-01-25T10:32:06;8.60;99.90
2893;DHT22;1456;51.840;12.184;2024-01-25T10:34:36;8.60;99.90
2893;DHT22;1456;51.840;12.184;2024-01-25T10:37:05;8.70;99.90
2893;DHT22;1456;51.840;12.184;2024-01-25T10:39:31;8.80;99.90
2893;DHT22;1456;51.840;12.184;2024-01-25T10:41:58;8.90;99.90
2893;DHT22;1456;51.840;12.184;2024-01-25T10:44:25;8.80;99.90
2893;DHT22;1456;51.840;12.184;2024-01-25T10:46:50;8.80;99.90
2893;DHT22;1456;51.840;12.184;2024-01-25T10:49:17;8.90;99.90
2893;DHT22;1456;51.840;12.184;2024-01-25T10:51:44;9.10;99.90
2893;DHT22;1456;51.840;12.184;2024-01-25T10:54:14;9.30;99.90
2893;DHT22;1456;51.840;12.184;2024-01-25T10:56:45;9.40;99.90
2893;DHT22;1456;51.840;12.184;2024-01-25T10:59:11;9.30;99.90
2893;DHT22;1456;51.840;12.184;2024-01-25T11:01:37;9.40;99.90
2893;DHT22;1456;51.840;12.184;2024-01-25T11:04:11;9.50;99.90
2893;DHT22;1456;51.840;12.184;2024-01-25T11:06:37;9.40;99.90
2893;DHT22;1456;51.840;12.184;2024-01-25T11:09:06;9.30;99.90
2893;DHT22;1456;51.840;12.184;2024-01-25T11:11:32;9.30;99.90
2893;DHT22;1456;51.840;12.184;2024-01-25T11:13:58;9.30;99.90
2893;DHT22;1456;51.840;12.184;2024-01-25T11:16:29;9.40;99.90
2893;DHT22;1456;51.840;12.184;2024-01-25T11:18:58;9.40;99.90
2893;DHT22;1456;51.840;12.184;2024-01-25T11:21:45;9.40;99.90
2893;DHT22;1456;51.840;12.184;2024-01-25T11:26:47;9.00;99.90
2893;DHT22;1456;51.840;12.184;2024-01-25T11:29:14;8.90;99.90
2893;DHT22;1456;51.840;12.184;2024-01-25T11:31:42;8.90;99.90
2893;DHT22;1456;51.840;12.184;2024-01-25T11:34:11;8.80;99.90
2893;DHT22;1456;51.840;12.184;2024-01-25T11:36:37;8.90;99.90
2893;DHT22;1456;51.840;12.184;2024-01-25T11:39:03;8.90;99.90
2893;DHT22;1456;51.840;12.184;2024-01-25T11:41:30;9.00;99.90
2893;DHT22;1456;51.840;12.184;2024-01-25T11:43:56;9.00;99.90
2893;DHT22;1456;51.840;12.184;2024-01-25T11:46:22;8.90;99.90
2893;DHT22;1456;51.840;12.184;2024-01-25T11:48:48;8.80;99.90
2893;DHT22;1456;51.840;12.184;2024-01-25T11:51:13;8.80;99.90
2893;DHT22;1456;51.840;12.184;2024-01-25T11:53:40;8.80;99.90
2893;DHT22;1456;51.840;12.184;2024-01-25T11:56:10;8.90;99.90
2893;DHT22;1456;51.840;12.184;2024-01-25T11:58:38;8.90;99.90
2893;DHT22;1456;51.840;12.184;2024-01-25T12:01:06;8.80;99.90
2893;DHT22;1456;51.840;12.184;2024-01-25T12:03:35;8.90;99.90
2893;DHT22;1456;51.840;12.184;2024-01-25T12:06:03;9.00;99.90
2893;DHT22;1456;51.840;12.184;2024-01-25T12:08:33;9.00;99.90
2893;DHT22;1456;51.840;12.184;2024-01-25T12:11:06;9.10;99.90
2893;DHT22;1456;51.840;12.184;2024-01-25T12:13:38;9.00;99.90
2893;DHT22;1456;51.840;12.184;2024-01-25T12:16:05;8.90;99.90
2893;DHT22;1456;51.840;12.184;2024-01-25T12:18:31;8.90;99.90
2893;DHT22;1456;51.840;12.184;2024-01-25T12:20:58;8.90;99.90
2893;DHT22;1456;51.840;12.184;2024-01-25T12:23:34;8.70;99.90
2893;DHT22;1456;51.840;12.184;2024-01-25T12:26:07;8.60;99.90
2893;DHT22;1456;51.840;12.184;2024-01-25T12:28:33;8.50;99.90
2893;DHT22;1456;51.840;12.184;2024-01-25T12:31:05;8.50;99.90
2893;DHT22;1456;51.840;12.184;2024-01-25T12:33:31;8.50;99.90
2893;DHT22;1456;51.840;12.184;2024-01-25T12:35:58;8.50;99.90
2893;DHT22;1456;51.840;12.184;2024-01-25T12:38:24;8.50;99.90
2893;DHT22;1456;51.840;12.184;2024-01-25T12:40:51;8.50;99.90
2893;DHT22;1456;51.840;12.184;2024-01-25T12:43:17;8.50;99.90
2893;DHT22;1456;51.840;12.184;2024-01-25T12:45:43;8.70;99.90
2893;DHT22;1456;51.840;12.184;2024-01-25T12:48:10;8.70;99.90
2893;DHT22;1456;51.840;12.184;2024-01-25T12:50:36;8.60;99.90
2893;DHT22;1456;51.840;12.184;2024-01-25T12:53:02;8.60;99.90
2893;DHT22;1456;51.840;12.184;2024-01-25T12:55:29;8.60;99.90
2893;DHT22;1456;51.840;12.184;2024-01-25T12:57:56;8.40;99.90
2893;DHT22;1456;51.840;12.184;2024-01-25T13:00:22;8.30;99.90
2893;DHT22;1456;51.840;12.184;2024-01-25T13:02:48;8.30;99.90
2893;DHT22;1456;51.840;12.184;2024-01-25T13:05:14;8.20;99.90
2893;DHT22;1456;51.840;12.184;2024-01-25T13:07:40;8.10;99.90
2893;DHT22;1456;51.840;12.184;2024-01-25T13:10:06;8.10;99.90
2893;DHT22;1456;51.840;12.184;2024-01-25T13:12:32;8.10;99.90
2893;DHT22;1456;51.840;12.184;2024-01-25T13:14:57;8.10;99.90
2893;DHT22;1456;51.840;12.184;2024-01-25T13:17:23;8.10;99.90
2893;DHT22;1456;51.840;12.184;2024-01-25T13:19:50;8.10;99.90
2893;DHT22;1456;51.840;12.184;2024-01-25T13:22:16;8.10;99.90
2893;DHT22;1456;51.840;12.184;2024-01-25T13:24:50;8.10;99.90
2893;DHT22;1456;51.840;12.184;2024-01-25T13:27:16;8.10;99.90
2893;DHT22;1456;51.840;12.184;2024-01-25T13:29:41;8.20;99.90
2893;DHT22;1456;51.840;12.184;2024-01-25T13:32:08;8.30;99.90
2893;DHT22;1456;51.840;12.184;2024-01-25T13:34:34;8.30;99.90
2893;DHT22;1456;51.840;12.184;2024-01-25T13:36:59;8.40;99.90
2893;DHT22;1456;51.840;12.184;2024-01-25T13:39:25;8.60;99.90
2893;DHT22;1456;51.840;12.184;2024-01-25T13:41:51;8.80;99.90
2893;DHT22;1456;51.840;12.184;2024-01-25T13:44:17;8.70;99.90
2893;DHT22;1456;51.840;12.184;2024-01-25T13:46:42;8.70;99.90
2893;DHT22;1456;51.840;12.184;2024-01-25T13:49:08;8.70;99.90
2893;DHT22;1456;51.840;12.184;2024-01-25T13:51:34;8.60;99.90
2893;DHT22;1456;51.840;12.184;2024-01-25T13:54:00;8.60;99.90
2893;DHT22;1456;51.840;12.184;2024-01-25T13:56:25;8.50;99.90
2893;DHT22;1456;51.840;12.184;2024-01-25T13:58:51;8.50;99.90
2893;DHT22;1456;51.840;12.184;2024-01-25T14:01:17;8.30;99.90
2893;DHT22;1456;51.840;12.184;2024-01-25T14:03:43;8.30;99.90
2893;DHT22;1456;51.840;12.184;2024-01-25T14:06:09;8.30;99.90
2893;DHT22;1456;51.840;12.184;2024-01-25T14:08:37;8.40;99.90
2893;DHT22;1456;51.840;12.184;2024-01-25T14:11:04;8.40;99.90
2893;DHT22;1456;51.840;12.184;2024-01-25T14:13:31;8.50;99.90
2893;DHT22;1456;51.840;12.184;2024-01-25T14:15:57;8.50;99.90
2893;DHT22;1456;51.840;12.184;2024-01-25T14:18:24;8.40;99.90
2893;DHT22;1456;51.840;12.184;2024-01-25T14:20:50;8.40;99.90
2893;DHT22;1456;51.840;12.184;2024-01-25T14:23:16;8.40;99.90
2893;DHT22;1456;51.840;12.184;2024-01-25T14:25:41;8.40;99.90
2893;DHT22;1456;51.840;12.184;2024-01-25T14:28:07;8.40;99.90
2893;DHT22;1456;51.840;12.184;2024-01-25T14:30:32;8.30;99.90
2893;DHT22;1456;51.840;12.184;2024-01-25T14:32:58;8.20;99.90
2893;DHT22;1456;51.840;12.184;2024-01-25T14:35:24;8.20;99.90
2893;DHT22;1456;51.840;12.184;2024-01-25T14:37:54;8.20;99.90
2893;DHT22;1456;51.840;12.184;2024-01-25T14:40:20;8.30;99.90
2893;DHT22;1456;51.840;12.184;2024-01-25T14:42:46;8.20;99.90
2893;DHT22;1456;51.840;12.184;2024-01-25T14:45:12;8.20;99.90
2893;DHT22;1456;51.840;12.184;2024-01-25T14:47:37;8.20;99.90
2893;DHT22;1456;51.840;12.184;2024-01-25T14:50:03;8.30;99.90
2893;DHT22;1456;51.840;12.184;2024-01-25T14:52:29;8.30;99.90
2893;DHT22;1456;51.840;12.184;2024-01-25T14:55:02;8.30;99.90
2893;DHT22;1456;51.840;12.184;2024-01-25T14:57:27;8.30;99.90
2893;DHT22;1456;51.840;12.184;2024-01-25T14:59:53;8.40;99.90
2893;DHT22;1456;51.840;12.184;2024-01-25T15:02:19;8.40;99.90
2893;DHT22;1456;51.840;12.184;2024-01-25T15:04:44;8.30;99.90
2893;DHT22;1456;51.840;12.184;2024-01-25T15:07:10;8.30;99.90
2893;DHT22;1456;51.840;12.184;2024-01-25T15:09:36;8.20;99.90
2893;DHT22;1456;51.840;12.184;2024-01-25T15:12:01;8.10;99.90
2893;DHT22;1456;51.840;12.184;2024-01-25T15:14:27;8.10;99.90
2893;DHT22;1456;51.840;12.184;2024-01-25T15:16:53;8.10;99.90
2893;DHT22;1456;51.840;12.184;2024-01-25T15:19:24;8.00;99.90
2893;DHT22;1456;51.840;12.184;2024-01-25T15:21:50;8.00;99.90
2893;DHT22;1456;51.840;12.184;2024-01-25T15:24:16;7.90;99.90
2893;DHT22;1456;51.840;12.184;2024-01-25T15:26:42;7.80;99.90
2893;DHT22;1456;51.840;12.184;2024-01-25T15:29:08;7.70;99.90
2893;DHT22;1456;51.840;12.184;2024-01-25T15:31:33;7.60;99.90
2893;DHT22;1456;51.840;12.184;2024-01-25T15:33:59;7.60;99.90
2893;DHT22;1456;51.840;12.184;2024-01-25T15:36:25;7.40;99.90
2893;DHT22;1456;51.840;12.184;2024-01-25T15:39:27;7.30;99.90
2893;DHT22;1456;51.840;12.184;2024-01-25T15:41:53;7.20;99.90
2893;DHT22;1456;51.840;12.184;2024-01-25T15:44:19;7.10;99.90
2893;DHT22;1456;51.840;12.184;2024-01-25T15:46:45;7.00;99.90
2893;DHT22;1456;51.840;12.184;2024-01-25T15:49:20;6.90;99.90
2893;DHT22;1456;51.840;12.184;2024-01-25T15:52:05;6.80;99.90
2893;DHT22;1456;51.840;12.184;2024-01-25T15:54:31;6.70;99.90
2893;DHT22;1456;51.840;12.184;2024-01-25T15:56:57;6.60;99.90
2893;DHT22;1456;51.840;12.184;2024-01-25T15:59:22;6.50;99.90